Time;durP1;ratioP1;P1;durP2;ratioP2;P2;SDS_P1;SDS_P2;PMS_P1;PMS_P2;Temp;Humidity;BMP_temperature;BMP_pressure;BME280_temperature;BME280_humidity;BME280_pressure;Samples;Min_cycle;Max_cycle;Signal;HPM_P1;HPM_P2
2022/12/12 00:01:56;;;;;;;31.98;17.88;;;;;;;;;;4926330;28;20032;-40
2022/12/12 00:04:21;;;;;;;28.20;17.02;;;;;;;;;;4927382;28;20425;-41
2022/12/12 00:06:47;;;;;;;27.65;15.60;;;;;;;;;;4930886;29;20043;-40
2022/12/12 00:09:12;;;;;;;30.88;16.23;;;;;;;;;;4925956;28;20039;-40
2022/12/12 00:11:38;;;;;;;29.08;16.75;;;;;;;;;;4929899;29;20031;-41
2022/12/12 00:14:04;;;;;;;27.70;17.02;;;;;;;;;;4926605;28;20071;-41
2022/12/12 00:16:30;;;;;;;28.80;17.60;;;;;;;;;;4929592;29;20473;-40
2022/12/12 00:18:55;;;;;;;26.45;16.60;;;;;;;;;;4926100;28;20098;-40
2022/12/12 00:21:26;;;;;;;25.58;16.40;;;;;;;;;;4927478;29;20027;-41
2022/12/12 00:23:52;;;;;;;23.75;15.27;;;;;;;;;;4930350;28;20047;-41
2022/12/12 00:26:27;;;;;;;24.10;15.07;;;;;;;;;;4928593;29;20046;-41
2022/12/12 00:28:52;;;;;;;21.45;14.23;;;;;;;;;;4923668;29;20067;-41
2022/12/12 00:31:18;;;;;;;23.55;15.75;;;;;;;;;;4929204;29;20478;-41
2022/12/12 00:33:46;;;;;;;25.83;16.05;;;;;;;;;;4927185;28;20070;-40
2022/12/12 00:36:12;;;;;;;24.17;15.27;;;;;;;;;;4927403;29;20095;-40
2022/12/12 00:38:38;;;;;;;35.17;15.63;;;;;;;;;;4923267;29;20091;-40
2022/12/12 00:41:05;;;;;;;24.17;16.70;;;;;;;;;;4928465;29;20493;-41
2022/12/12 00:43:30;;;;;;;21.95;14.65;;;;;;;;;;4926022;29;20047;-41
2022/12/12 00:45:59;;;;;;;24.27;15.05;;;;;;;;;;4929411;29;20402;-42
2022/12/12 00:48:25;;;;;;;23.92;15.18;;;;;;;;;;4929230;28;20066;-41
2022/12/12 00:50:50;;;;;;;21.52;14.57;;;;;;;;;;4927574;29;20084;-40
2022/12/12 00:53:16;;;;;;;21.98;14.10;;;;;;;;;;4930876;29;20043;-40
2022/12/12 00:55:41;;;;;;;20.85;15.20;;;;;;;;;;4929743;29;20062;-40
2022/12/12 00:58:06;;;;;;;25.35;15.00;;;;;;;;;;4929801;29;20043;-40
2022/12/12 01:00:33;;;;;;;21.60;14.90;;;;;;;;;;4927623;29;20036;-40
2022/12/12 01:02:59;;;;;;;24.25;15.40;;;;;;;;;;4928008;28;20039;-40
2022/12/12 01:05:25;;;;;;;25.20;16.20;;;;;;;;;;4931940;29;20040;-41
2022/12/12 01:07:51;;;;;;;29.00;16.05;;;;;;;;;;4933653;28;20058;-43
2022/12/12 01:10:17;;;;;;;23.35;14.52;;;;;;;;;;4929824;29;20046;-40
2022/12/12 01:12:43;;;;;;;20.02;13.88;;;;;;;;;;4930844;29;20394;-40
2022/12/12 01:15:09;;;;;;;27.67;15.00;;;;;;;;;;4933977;28;20122;-40
2022/12/12 01:17:36;;;;;;;23.95;14.07;;;;;;;;;;4928439;29;20031;-41
2022/12/12 01:20:16;;;;;;;23.17;13.88;;;;;;;;;;4930942;28;20414;-41
2022/12/12 01:22:41;;;;;;;25.50;14.90;;;;;;;;;;4930179;29;20035;-41
2022/12/12 01:25:08;;;;;;;22.92;15.50;;;;;;;;;;4932896;28;20051;-40
2022/12/12 01:27:34;;;;;;;25.98;15.63;;;;;;;;;;4926785;29;20083;-40
2022/12/12 01:30:01;;;;;;;24.15;15.55;;;;;;;;;;4930826;28;20079;-40
2022/12/12 01:32:27;;;;;;;23.95;15.35;;;;;;;;;;4932760;29;20034;-41
2022/12/12 01:34:53;;;;;;;24.00;15.60;;;;;;;;;;4928009;28;20073;-41
2022/12/12 01:37:18;;;;;;;22.95;14.55;;;;;;;;;;4929408;29;20039;-40
2022/12/12 01:39:44;;;;;;;25.25;14.82;;;;;;;;;;4929269;28;20634;-43
2022/12/12 01:42:14;;;;;;;21.00;14.18;;;;;;;;;;4930212;29;20397;-41
2022/12/12 01:44:48;;;;;;;26.30;15.23;;;;;;;;;;4931507;28;20035;-41
2022/12/12 01:47:16;;;;;;;21.02;14.57;;;;;;;;;;4931648;29;20047;-41
2022/12/12 01:49:45;;;;;;;23.75;15.60;;;;;;;;;;4930750;29;20091;-40
2022/12/12 01:52:16;;;;;;;23.33;14.70;;;;;;;;;;4929568;29;20028;-40
2022/12/12 01:54:47;;;;;;;21.35;15.25;;;;;;;;;;4928661;28;20032;-40
2022/12/12 01:57:19;;;;;;;21.75;15.35;;;;;;;;;;4930320;29;20028;-40
2022/12/12 01:59:45;;;;;;;25.80;14.75;;;;;;;;;;4927920;28;20122;-40
2022/12/12 02:02:11;;;;;;;24.23;13.73;;;;;;;;;;4934122;29;20367;-45
2022/12/12 02:04:37;;;;;;;28.05;15.02;;;;;;;;;;4928917;28;20055;-41
2022/12/12 02:07:03;;;;;;;22.60;14.40;;;;;;;;;;4931006;29;20952;-41
2022/12/12 02:09:28;;;;;;;22.95;14.73;;;;;;;;;;4926740;29;20048;-41
2022/12/12 02:11:55;;;;;;;22.70;14.35;;;;;;;;;;4931155;29;20042;-41
2022/12/12 02:14:25;;;;;;;21.05;13.63;;;;;;;;;;4928816;28;20039;-40
2022/12/12 02:17:18;;;;;;;26.60;13.85;;;;;;;;;;4928408;29;20038;-41
2022/12/12 02:20:05;;;;;;;27.73;14.65;;;;;;;;;;4929529;28;20050;-40
2022/12/12 02:22:49;;;;;;;21.95;13.43;;;;;;;;;;4927404;29;20152;-40
2022/12/12 02:25:37;;;;;;;24.98;14.20;;;;;;;;;;4928187;29;20414;-41
2022/12/12 02:28:46;;;;;;;22.88;13.50;;;;;;;;;;4929475;28;20070;-41
2022/12/12 02:31:14;;;;;;;22.55;13.13;;;;;;;;;;4926384;29;20044;-40
2022/12/12 02:33:55;;;;;;;26.08;13.70;;;;;;;;;;4930515;28;20040;-40
2022/12/12 02:36:35;;;;;;;24.17;13.98;;;;;;;;;;4929987;29;20039;-41
2022/12/12 02:39:32;;;;;;;25.35;13.63;;;;;;;;;;4932587;28;20058;-40
2022/12/12 02:42:45;;;;;;;22.02;13.10;;;;;;;;;;4923603;29;20439;-41
2022/12/12 02:45:26;;;;;;;21.83;13.38;;;;;;;;;;4927849;29;20131;-41
2022/12/12 02:48:12;;;;;;;20.92;13.18;;;;;;;;;;4926525;29;20024;-40
2022/12/12 02:50:40;;;;;;;23.05;13.35;;;;;;;;;;4926840;29;20043;-41
2022/12/12 02:53:06;;;;;;;23.60;14.07;;;;;;;;;;4926203;29;20043;-41
2022/12/12 02:55:31;;;;;;;28.45;16.25;;;;;;;;;;4928542;29;20032;-41
2022/12/12 02:57:57;;;;;;;27.95;16.95;;;;;;;;;;4928349;28;20032;-41
2022/12/12 03:00:22;;;;;;;27.58;14.55;;;;;;;;;;4930873;29;20037;-41
2022/12/12 03:09:50;;;;;;;24.60;14.50;;;;;;;;;;4926423;29;20067;-40
2022/12/12 03:12:30;;;;;;;24.50;15.02;;;;;;;;;;4927585;29;20032;-41
2022/12/12 03:15:08;;;;;;;25.90;16.20;;;;;;;;;;4910418;28;20075;-41
2022/12/12 03:17:43;;;;;;;24.50;14.48;;;;;;;;;;4907061;29;20036;-41
2022/12/12 03:20:18;;;;;;;32.05;16.17;;;;;;;;;;4927008;29;20051;-41
2022/12/12 03:22:56;;;;;;;27.33;15.90;;;;;;;;;;4929884;29;20163;-42
2022/12/12 03:25:49;;;;;;;24.85;16.25;;;;;;;;;;4929239;29;20099;-41
2022/12/12 03:28:25;;;;;;;29.13;16.23;;;;;;;;;;4927327;29;20082;-41
2022/12/12 03:30:54;;;;;;;26.63;16.80;;;;;;;;;;4927963;29;20138;-41
2022/12/12 03:33:28;;;;;;;30.10;17.85;;;;;;;;;;4925086;28;20180;-42
2022/12/12 03:36:32;;;;;;;29.80;16.02;;;;;;;;;;4926605;29;20050;-40
2022/12/12 03:39:17;;;;;;;25.55;15.90;;;;;;;;;;4927303;28;20518;-41
2022/12/12 03:41:49;;;;;;;24.25;15.30;;;;;;;;;;4926362;29;20032;-41
2022/12/12 03:44:28;;;;;;;26.88;15.60;;;;;;;;;;4924484;28;20052;-41
2022/12/12 03:46:55;;;;;;;23.90;15.40;;;;;;;;;;4928067;29;20032;-41
2022/12/12 03:49:28;;;;;;;30.25;18.20;;;;;;;;;;4927819;29;20055;-41
2022/12/12 03:52:00;;;;;;;30.02;16.58;;;;;;;;;;4927089;29;20036;-43
2022/12/12 03:54:48;;;;;;;28.90;16.30;;;;;;;;;;4928866;29;20064;-47
2022/12/12 03:57:40;;;;;;;22.67;14.82;;;;;;;;;;4930625;29;20070;-41
2022/12/12 04:00:13;;;;;;;26.23;15.38;;;;;;;;;;4926510;28;20035;-41
2022/12/12 04:02:45;;;;;;;32.17;17.55;;;;;;;;;;4928545;29;20032;-41
2022/12/12 04:05:25;;;;;;;29.23;15.98;;;;;;;;;;4927762;28;20031;-41
2022/12/12 04:07:57;;;;;;;24.88;16.05;;;;;;;;;;4927035;28;20123;-39
2022/12/12 04:13:34;;;;;;;25.55;14.50;;;;;;;;;;4926238;28;20524;-41
2022/12/12 04:16:17;;;;;;;24.70;15.70;;;;;;;;;;4927441;29;20554;-42
2022/12/12 04:18:52;;;;;;;;;;;;;;;;;;4932228;28;20040;-41
2022/12/12 04:24:28;;;;;;;22.38;14.75;;;;;;;;;;4926335;28;20142;-42
2022/12/12 04:27:05;;;;;;;27.83;15.52;;;;;;;;;;4929502;29;20063;-41
2022/12/12 04:29:34;;;;;;;28.23;16.02;;;;;;;;;;4930723;28;20139;-43
2022/12/12 04:32:04;;;;;;;26.75;16.08;;;;;;;;;;4926169;29;20051;-41
2022/12/12 04:34:43;;;;;;;23.45;14.93;;;;;;;;;;4923927;28;20442;-41
2022/12/12 04:37:14;;;;;;;26.23;16.35;;;;;;;;;;4929784;29;20046;-40
2022/12/12 04:39:40;;;;;;;29.27;15.73;;;;;;;;;;4933356;28;20043;-41
2022/12/12 04:42:08;;;;;;;24.88;15.32;;;;;;;;;;4930016;29;20042;-40
2022/12/12 04:44:37;;;;;;;24.75;16.40;;;;;;;;;;4930878;28;20693;-41
2022/12/12 04:47:05;;;;;;;26.60;16.50;;;;;;;;;;4930349;29;20102;-40
2022/12/12 04:49:33;;;;;;;32.03;16.67;;;;;;;;;;4930082;28;20050;-41
2022/12/12 04:52:04;;;;;;;28.52;17.17;;;;;;;;;;4929705;29;20059;-41
2022/12/12 04:54:46;;;;;;;27.33;16.75;;;;;;;;;;4928782;28;20050;-41
2022/12/12 04:57:19;;;;;;;30.93;15.90;;;;;;;;;;4932241;29;20078;-41
2022/12/12 04:59:44;;;;;;;26.08;15.80;;;;;;;;;;4930346;28;20506;-41
2022/12/12 05:02:23;;;;;;;23.85;15.65;;;;;;;;;;4930788;29;20035;-41
2022/12/12 05:05:02;;;;;;;28.98;15.35;;;;;;;;;;4927610;28;20079;-41
2022/12/12 05:07:36;;;;;;;22.80;14.73;;;;;;;;;;4925933;29;20051;-41
2022/12/12 05:10:05;;;;;;;20.85;14.43;;;;;;;;;;4928340;28;20071;-41
2022/12/12 05:12:39;;;;;;;29.58;16.10;;;;;;;;;;4929486;29;20031;-41
2022/12/12 05:15:05;;;;;;;30.33;16.42;;;;;;;;;;4924939;28;20047;-41
2022/12/12 05:17:39;;;;;;;25.08;16.00;;;;;;;;;;4929270;29;20035;-41
2022/12/12 05:20:05;;;;;;;30.55;15.70;;;;;;;;;;4925400;28;20040;-41
2022/12/12 05:22:30;;;;;;;29.45;16.20;;;;;;;;;;4927518;29;20517;-41
2022/12/12 05:24:55;;;;;;;25.83;16.05;;;;;;;;;;4928471;28;20040;-41
2022/12/12 05:27:21;;;;;;;26.20;15.85;;;;;;;;;;4928849;29;20032;-41
2022/12/12 05:29:46;;;;;;;33.88;16.30;;;;;;;;;;4925017;28;20055;-43
2022/12/12 05:32:11;;;;;;;25.63;15.75;;;;;;;;;;4930086;29;20431;-41
2022/12/12 05:34:37;;;;;;;24.95;17.00;;;;;;;;;;4929006;28;20043;-41
2022/12/12 05:37:02;;;;;;;22.90;16.55;;;;;;;;;;4927379;29;20170;-46
2022/12/12 05:39:28;;;;;;;21.75;14.60;;;;;;;;;;4931905;28;20167;-41
2022/12/12 05:41:53;;;;;;;24.20;15.57;;;;;;;;;;4923492;29;20517;-41
2022/12/12 05:44:18;;;;;;;23.67;15.95;;;;;;;;;;4929167;28;20122;-40
2022/12/12 05:46:44;;;;;;;24.88;14.93;;;;;;;;;;4930971;29;20175;-43
2022/12/12 05:49:09;;;;;;;24.20;14.98;;;;;;;;;;4926149;28;20052;-42
2022/12/12 05:51:35;;;;;;;24.00;15.32;;;;;;;;;;4923426;29;20458;-41
2022/12/12 05:54:00;;;;;;;25.25;15.80;;;;;;;;;;4932287;29;20056;-41
2022/12/12 05:56:25;;;;;;;30.67;16.13;;;;;;;;;;4929811;29;20035;-41
2022/12/12 05:58:51;;;;;;;32.72;16.85;;;;;;;;;;4929001;28;20392;-41
2022/12/12 06:01:16;;;;;;;38.15;19.17;;;;;;;;;;4933690;29;20036;-41
2022/12/12 06:03:41;;;;;;;38.75;19.50;;;;;;;;;;4930056;28;20044;-40
2022/12/12 06:06:07;;;;;;;28.17;16.25;;;;;;;;;;4924404;29;20131;-39
2022/12/12 06:08:32;;;;;;;24.75;14.68;;;;;;;;;;4925480;28;20091;-40
2022/12/12 06:10:58;;;;;;;21.50;14.10;;;;;;;;;;4930379;29;20099;-41
2022/12/12 06:13:23;;;;;;;22.80;13.57;;;;;;;;;;4928086;28;20134;-41
2022/12/12 06:15:49;;;;;;;25.13;14.25;;;;;;;;;;4927256;29;20043;-41
2022/12/12 06:18:14;;;;;;;20.85;13.85;;;;;;;;;;4927149;28;20039;-43
2022/12/12 06:20:39;;;;;;;21.13;13.75;;;;;;;;;;4933228;29;20028;-40
2022/12/12 06:23:05;;;;;;;18.35;13.35;;;;;;;;;;4926686;28;20087;-43
2022/12/12 06:25:30;;;;;;;19.05;13.27;;;;;;;;;;4926869;28;20059;-41
2022/12/12 06:27:56;;;;;;;18.40;13.13;;;;;;;;;;4932536;28;20032;-40
2022/12/12 06:30:21;;;;;;;21.08;13.90;;;;;;;;;;4931142;29;20501;-41
2022/12/12 06:32:47;;;;;;;20.88;13.90;;;;;;;;;;4924808;29;20043;-43
2022/12/12 06:35:12;;;;;;;24.25;13.45;;;;;;;;;;4929920;28;20126;-40
2022/12/12 06:37:39;;;;;;;18.38;12.82;;;;;;;;;;4926514;29;20032;-41
2022/12/12 06:40:05;;;;;;;18.80;12.20;;;;;;;;;;4923980;28;20507;-41
2022/12/12 06:42:31;;;;;;;19.27;12.45;;;;;;;;;;4929218;29;20099;-41
2022/12/12 06:44:56;;;;;;;23.58;12.73;;;;;;;;;;4926040;29;20047;-42
2022/12/12 06:47:21;;;;;;;18.55;13.00;;;;;;;;;;4929548;29;20034;-41
2022/12/12 06:49:47;;;;;;;23.08;12.82;;;;;;;;;;4924960;28;20059;-44
2022/12/12 06:52:12;;;;;;;18.77;12.55;;;;;;;;;;4928271;29;20031;-42
2022/12/12 06:54:38;;;;;;;22.77;13.18;;;;;;;;;;4928898;28;20103;-41
2022/12/12 06:57:03;;;;;;;19.88;13.07;;;;;;;;;;4930117;29;20040;-42
2022/12/12 06:59:29;;;;;;;22.17;12.95;;;;;;;;;;4929758;28;20074;-40
2022/12/12 07:01:55;;;;;;;19.45;13.48;;;;;;;;;;4926903;29;20754;-41
2022/12/12 07:04:21;;;;;;;18.63;14.00;;;;;;;;;;4923672;29;20052;-42
2022/12/12 07:06:46;;;;;;;24.88;14.30;;;;;;;;;;4927562;29;20031;-40
2022/12/12 07:09:11;;;;;;;19.55;14.00;;;;;;;;;;4930721;29;20046;-40
2022/12/12 07:11:38;;;;;;;20.95;13.30;;;;;;;;;;4923354;29;20114;-42
2022/12/12 07:14:04;;;;;;;21.95;14.07;;;;;;;;;;4920999;28;20047;-41
2022/12/12 07:16:30;;;;;;;24.70;14.35;;;;;;;;;;4921613;29;20035;-44
2022/12/12 07:18:55;;;;;;;28.25;15.80;;;;;;;;;;4923508;29;20091;-43
2022/12/12 07:21:21;;;;;;;32.85;18.13;;;;;;;;;;4925780;29;20059;-42
2022/12/12 07:23:46;;;;;;;37.75;20.02;;;;;;;;;;4927272;28;20054;-41
2022/12/12 07:26:22;;;;;;;41.53;21.10;;;;;;;;;;4927280;29;21201;-42
2022/12/12 07:28:49;;;;;;;32.38;20.00;;;;;;;;;;4926309;28;20055;-41
2022/12/12 07:31:17;;;;;;;26.85;16.58;;;;;;;;;;4919325;29;20043;-41
2022/12/12 07:33:43;;;;;;;25.92;15.95;;;;;;;;;;4918957;28;20048;-41
2022/12/12 07:36:08;;;;;;;28.60;16.88;;;;;;;;;;4933410;29;20028;-42
2022/12/12 07:38:35;;;;;;;22.63;15.02;;;;;;;;;;4929095;28;20040;-41
2022/12/12 07:41:06;;;;;;;20.88;13.52;;;;;;;;;;4931263;29;20403;-41
2022/12/12 07:43:34;;;;;;;21.45;14.85;;;;;;;;;;4924418;29;20047;-41
2022/12/12 07:45:59;;;;;;;27.15;17.40;;;;;;;;;;4927491;29;20063;-42
2022/12/12 07:48:27;;;;;;;28.00;16.38;;;;;;;;;;4925887;28;20493;-41
2022/12/12 07:50:52;;;;;;;27.08;15.65;;;;;;;;;;4924524;29;20044;-42
2022/12/12 07:53:17;;;;;;;24.48;15.18;;;;;;;;;;4930663;28;20039;-41
2022/12/12 07:55:43;;;;;;;24.25;17.25;;;;;;;;;;4926223;29;20043;-41
2022/12/12 07:58:08;;;;;;;27.58;17.55;;;;;;;;;;4926906;28;20538;-41
2022/12/12 08:00:34;;;;;;;20.77;14.98;;;;;;;;;;4929349;29;20042;-41
2022/12/12 08:02:59;;;;;;;24.33;15.60;;;;;;;;;;4924994;28;20043;-42
2022/12/12 08:05:24;;;;;;;23.98;15.18;;;;;;;;;;4926713;29;20032;-43
2022/12/12 08:07:50;;;;;;;23.30;14.82;;;;;;;;;;4925459;29;20406;-41
2022/12/12 08:10:15;;;;;;;23.60;14.90;;;;;;;;;;4928941;29;20049;-43
2022/12/12 08:12:41;;;;;;;24.30;15.55;;;;;;;;;;4925295;29;20114;-42
2022/12/12 08:15:07;;;;;;;22.27;15.23;;;;;;;;;;4930154;28;20514;-41
2022/12/12 08:17:32;;;;;;;27.70;17.00;;;;;;;;;;4929955;29;20032;-41
2022/12/12 08:19:58;;;;;;;26.52;17.25;;;;;;;;;;4929328;28;20065;-42
2022/12/12 08:22:23;;;;;;;26.45;17.15;;;;;;;;;;4933502;29;20070;-41
2022/12/12 08:24:49;;;;;;;23.33;17.20;;;;;;;;;;4930577;28;20410;-42
2022/12/12 08:27:14;;;;;;;25.17;16.73;;;;;;;;;;4932576;29;20036;-41
2022/12/12 08:29:40;;;;;;;27.90;17.48;;;;;;;;;;4928189;28;20142;-44
2022/12/12 08:32:05;;;;;;;27.60;16.17;;;;;;;;;;4925433;29;20036;-41
2022/12/12 08:34:30;;;;;;;25.48;16.30;;;;;;;;;;4931212;28;20048;-41
2022/12/12 08:36:56;;;;;;;25.52;16.25;;;;;;;;;;4932002;29;20035;-41
2022/12/12 08:39:21;;;;;;;22.17;14.55;;;;;;;;;;4931019;28;20063;-41
2022/12/12 08:41:47;;;;;;;28.30;16.65;;;;;;;;;;4932607;29;20051;-41
2022/12/12 08:44:16;;;;;;;23.15;16.23;;;;;;;;;;4931551;28;20098;-41
2022/12/12 08:46:41;;;;;;;27.48;16.73;;;;;;;;;;4926926;29;20389;-43
2022/12/12 08:49:07;;;;;;;22.25;15.18;;;;;;;;;;4930876;28;20047;-41
2022/12/12 08:51:34;;;;;;;21.30;14.57;;;;;;;;;;4932603;29;20035;-42
2022/12/12 08:53:59;;;;;;;25.58;15.77;;;;;;;;;;4931946;28;20462;-41
2022/12/12 08:56:25;;;;;;;23.08;14.98;;;;;;;;;;4928235;29;20040;-41
2022/12/12 08:58:51;;;;;;;27.42;16.85;;;;;;;;;;4932676;28;20679;-41
2022/12/12 09:01:21;;;;;;;24.85;16.27;;;;;;;;;;4929164;29;20035;-43
2022/12/12 09:03:47;;;;;;;25.25;18.10;;;;;;;;;;4929538;28;20477;-41
2022/12/12 09:06:13;;;;;;;27.33;18.38;;;;;;;;;;4936392;29;20040;-42
2022/12/12 09:08:39;;;;;;;26.67;18.83;;;;;;;;;;4930630;28;20047;-43
2022/12/12 09:11:05;;;;;;;27.98;18.60;;;;;;;;;;4931675;29;20474;-41
2022/12/12 09:13:31;;;;;;;30.27;18.67;;;;;;;;;;4931363;28;20044;-41
2022/12/12 09:15:57;;;;;;;26.25;17.55;;;;;;;;;;4934557;29;20028;-41
2022/12/12 09:18:22;;;;;;;26.85;17.40;;;;;;;;;;4934160;28;20131;-41
2022/12/12 09:20:49;;;;;;;28.48;17.50;;;;;;;;;;4933568;29;20028;-41
2022/12/12 09:23:15;;;;;;;26.88;19.13;;;;;;;;;;4927688;28;20496;-41
2022/12/12 09:25:41;;;;;;;29.67;16.77;;;;;;;;;;4937062;28;20042;-42
2022/12/12 09:28:07;;;;;;;32.70;17.45;;;;;;;;;;4929674;28;20041;-41
2022/12/12 09:30:32;;;;;;;30.20;16.67;;;;;;;;;;4927131;29;20118;-41
2022/12/12 09:32:58;;;;;;;23.83;16.08;;;;;;;;;;4929230;28;20379;-41
2022/12/12 09:35:23;;;;;;;19.90;13.93;;;;;;;;;;4933316;29;20526;-41
2022/12/12 09:37:48;;;;;;;26.92;15.57;;;;;;;;;;4929236;29;20525;-41
2022/12/12 09:40:26;;;;;;;24.42;16.40;;;;;;;;;;4931504;28;20063;-41
2022/12/12 09:42:51;;;;;;;30.50;16.77;;;;;;;;;;4928249;28;20024;-39
2022/12/12 09:45:18;;;;;;;24.73;16.38;;;;;;;;;;4930456;29;20121;-39
2022/12/12 09:47:49;;;;;;;25.63;16.85;;;;;;;;;;4930557;29;20047;-39
2022/12/12 09:50:25;;;;;;;21.90;15.57;;;;;;;;;;4935009;28;20062;-40
2022/12/12 09:52:51;;;;;;;29.75;17.05;;;;;;;;;;4930549;28;20059;-37
2022/12/12 09:55:20;;;;;;;25.75;15.60;;;;;;;;;;4929114;29;20036;-39
2022/12/12 09:57:52;;;;;;;28.63;17.13;;;;;;;;;;4930189;29;20047;-40
2022/12/12 10:00:18;;;;;;;24.08;15.00;;;;;;;;;;4927991;29;20054;-40
2022/12/12 10:03:02;;;;;;;27.77;17.20;;;;;;;;;;4932007;29;20110;-41
2022/12/12 10:05:46;;;;;;;30.75;17.20;;;;;;;;;;4929031;29;20082;-40
2022/12/12 10:08:25;;;;;;;28.25;18.13;;;;;;;;;;4932272;28;20575;-40
2022/12/12 10:10:55;;;;;;;26.70;17.05;;;;;;;;;;4926741;29;20098;-40
2022/12/12 10:13:24;;;;;;;24.92;15.88;;;;;;;;;;4931744;28;20058;-39
2022/12/12 10:15:57;;;;;;;25.33;16.42;;;;;;;;;;4928148;29;20054;-40
2022/12/12 10:18:37;;;;;;;24.88;15.65;;;;;;;;;;4926911;28;20057;-40
2022/12/12 10:21:08;;;;;;;25.30;16.35;;;;;;;;;;4929641;29;20043;-40
2022/12/12 10:23:47;;;;;;;24.60;15.10;;;;;;;;;;4930116;28;20036;-39
2022/12/12 10:26:23;;;;;;;24.25;14.88;;;;;;;;;;4928565;29;20023;-40
2022/12/12 10:28:51;;;;;;;26.52;16.60;;;;;;;;;;4928355;29;20410;-40
2022/12/12 10:31:31;;;;;;;24.88;16.77;;;;;;;;;;4927327;29;20509;-39
2022/12/12 10:34:21;;;;;;;25.30;17.05;;;;;;;;;;4930240;28;20076;-39
2022/12/12 10:36:56;;;;;;;25.08;17.38;;;;;;;;;;4929687;29;20047;-39
2022/12/12 10:39:55;;;;;;;30.48;18.17;;;;;;;;;;4930356;28;20043;-41
2022/12/12 10:42:24;;;;;;;31.60;19.25;;;;;;;;;;4930281;29;20057;-39
2022/12/12 10:45:16;;;;;;;34.33;19.75;;;;;;;;;;4930006;28;20084;-40
2022/12/12 10:47:43;;;;;;;33.03;21.10;;;;;;;;;;4931670;29;20071;-40
2022/12/12 10:50:24;;;;;;;30.70;20.45;;;;;;;;;;4932532;28;20043;-39
2022/12/12 10:52:49;;;;;;;31.60;20.75;;;;;;;;;;4929947;29;20032;-40
2022/12/12 10:55:22;;;;;;;34.80;21.98;;;;;;;;;;4929995;29;20044;-39
2022/12/12 10:58:00;;;;;;;37.60;22.48;;;;;;;;;;4929481;29;20031;-39
2022/12/12 11:00:36;;;;;;;32.75;21.15;;;;;;;;;;4908855;29;20101;-39
2022/12/12 11:03:19;;;;;;;35.55;23.05;;;;;;;;;;4906635;29;20031;-39
2022/12/12 11:05:46;;;;;;;36.63;21.92;;;;;;;;;;4909513;29;20040;-39
2022/12/12 11:08:20;;;;;;;38.85;21.58;;;;;;;;;;4908545;29;20064;-40
2022/12/12 11:11:03;;;;;;;32.22;21.02;;;;;;;;;;4907310;29;20067;-39
2022/12/12 11:13:29;;;;;;;32.72;20.55;;;;;;;;;;4908943;29;20075;-40
2022/12/12 11:16:12;;;;;;;33.55;21.08;;;;;;;;;;4909053;29;20044;-39
2022/12/12 11:18:37;;;;;;;32.88;22.35;;;;;;;;;;4907988;29;21591;-39
2022/12/12 11:21:11;;;;;;;33.42;22.08;;;;;;;;;;4910586;29;20068;-40
2022/12/12 11:23:39;;;;;;;32.75;21.20;;;;;;;;;;4909664;28;20043;-39
2022/12/12 11:26:17;;;;;;;30.55;21.83;;;;;;;;;;4911958;29;20055;-39
2022/12/12 11:28:45;;;;;;;33.33;21.60;;;;;;;;;;4910033;29;20115;-39
2022/12/12 11:31:15;;;;;;;35.67;22.38;;;;;;;;;;4909925;29;20064;-39
2022/12/12 11:33:50;;;;;;;34.58;21.98;;;;;;;;;;4914228;29;20091;-40
2022/12/12 11:36:26;;;;;;;39.65;22.05;;;;;;;;;;4930439;29;20115;-39
2022/12/12 11:38:54;;;;;;;37.60;21.48;;;;;;;;;;4926876;28;20052;-39
2022/12/12 11:41:21;;;;;;;31.65;21.83;;;;;;;;;;4928758;29;20031;-39
2022/12/12 11:43:46;;;;;;;41.22;21.27;;;;;;;;;;4927227;28;20533;-40
2022/12/12 11:46:14;;;;;;;31.63;20.00;;;;;;;;;;4927778;29;20024;-39
2022/12/12 11:49:03;;;;;;;32.42;20.85;;;;;;;;;;4923940;28;20048;-40
2022/12/12 11:51:38;;;;;;;32.95;20.60;;;;;;;;;;4926756;29;20043;-39
2022/12/12 11:54:10;;;;;;;29.00;20.90;;;;;;;;;;4927639;29;20067;-39
2022/12/12 11:56:39;;;;;;;31.85;21.00;;;;;;;;;;4929848;29;20031;-39
2022/12/12 11:59:25;;;;;;;34.13;22.50;;;;;;;;;;4926295;28;20042;-39
2022/12/12 12:02:00;;;;;;;40.42;22.67;;;;;;;;;;4927093;29;20038;-40
2022/12/12 12:04:38;;;;;;;33.95;22.00;;;;;;;;;;4927482;29;20047;-41
2022/12/12 12:07:03;;;;;;;43.45;25.60;;;;;;;;;;4925717;29;20486;-39
2022/12/12 12:09:43;;;;;;;45.55;29.15;;;;;;;;;;4924864;28;20039;-41
2022/12/12 12:12:14;;;;;;;35.15;24.30;;;;;;;;;;4927228;29;20179;-40
2022/12/12 12:15:12;;;;;;;35.50;24.42;;;;;;;;;;4928629;28;20038;-39
2022/12/12 12:17:58;;;;;;;49.17;28.85;;;;;;;;;;4927743;29;20028;-40
2022/12/12 12:20:26;;;;;;;42.97;26.67;;;;;;;;;;4929874;29;20058;-39
2022/12/12 12:23:24;;;;;;;40.03;25.55;;;;;;;;;;4927090;28;20096;-37
2022/12/12 12:26:03;;;;;;;38.13;23.27;;;;;;;;;;4925094;29;20028;-42
2022/12/12 12:29:01;;;;;;;36.97;21.50;;;;;;;;;;4926367;29;20035;-40
2022/12/12 12:31:43;;;;;;;38.75;23.00;;;;;;;;;;4929341;29;20434;-40
2022/12/12 12:34:32;;;;;;;32.15;20.27;;;;;;;;;;4927372;28;20043;-40
2022/12/12 12:37:20;;;;;;;33.90;20.42;;;;;;;;;;4927057;29;20034;-39
2022/12/12 12:39:51;;;;;;;40.90;20.58;;;;;;;;;;4926816;28;20050;-40
2022/12/12 12:42:46;;;;;;;29.48;20.23;;;;;;;;;;4927077;29;20498;-40
2022/12/12 12:45:29;;;;;;;32.20;19.60;;;;;;;;;;4927511;28;20040;-39
2022/12/12 12:48:02;;;;;;;33.58;20.70;;;;;;;;;;4931392;28;20027;-39
2022/12/12 12:50:45;;;;;;;32.95;23.20;;;;;;;;;;4927870;29;20077;-40
2022/12/12 12:53:19;;;;;;;33.15;23.13;;;;;;;;;;4928975;28;20048;-41
2022/12/12 12:55:50;;;;;;;33.90;22.85;;;;;;;;;;4927434;29;20055;-40
2022/12/12 12:58:29;;;;;;;35.00;23.02;;;;;;;;;;4926388;28;20410;-40
2022/12/12 13:01:03;;;;;;;46.95;29.52;;;;;;;;;;4930343;29;20031;-39
2022/12/12 13:03:39;;;;;;;39.78;25.38;;;;;;;;;;4931456;28;20044;-40
2022/12/12 13:06:15;;;;;;;36.70;22.83;;;;;;;;;;4934518;29;20086;-39
2022/12/12 13:08:56;;;;;;;37.85;22.85;;;;;;;;;;4931767;28;20105;-40
2022/12/12 13:11:34;;;;;;;31.65;21.83;;;;;;;;;;4928318;29;20032;-43
2022/12/12 13:14:12;;;;;;;32.50;21.42;;;;;;;;;;4927320;28;20036;-40
2022/12/12 13:16:38;;;;;;;36.78;24.02;;;;;;;;;;4931497;29;20474;-39
2022/12/12 13:19:11;;;;;;;36.38;23.73;;;;;;;;;;4935310;28;20047;-42
2022/12/12 13:21:48;;;;;;;36.25;22.67;;;;;;;;;;4928682;29;20050;-39
2022/12/12 13:24:35;;;;;;;35.90;22.35;;;;;;;;;;4931599;28;20051;-40
2022/12/12 13:27:17;;;;;;;41.85;23.60;;;;;;;;;;4929871;29;20666;-40
2022/12/12 13:30:09;;;;;;;49.63;26.48;;;;;;;;;;4928907;28;20052;-40
2022/12/12 13:33:09;;;;;;;36.83;23.40;;;;;;;;;;4928612;29;20095;-40
2022/12/12 13:35:46;;;;;;;43.47;23.75;;;;;;;;;;4928026;29;20048;-40
2022/12/12 13:38:23;;;;;;;35.78;24.75;;;;;;;;;;4930239;29;20079;-40
2022/12/12 13:41:00;;;;;;;44.13;24.80;;;;;;;;;;4927418;29;20051;-40
2022/12/12 13:43:43;;;;;;;41.80;25.42;;;;;;;;;;4926452;29;20285;-39
2022/12/12 13:46:20;;;;;;;40.50;25.90;;;;;;;;;;4926195;29;20044;-41
2022/12/12 13:49:04;;;;;;;48.70;27.23;;;;;;;;;;4927529;29;20131;-40
2022/12/12 13:51:34;;;;;;;49.97;29.17;;;;;;;;;;4928231;29;20039;-42
2022/12/12 13:54:06;;;;;;;50.78;31.35;;;;;;;;;;4924726;29;20044;-39
2022/12/12 13:56:44;;;;;;;56.58;31.10;;;;;;;;;;4913620;29;20044;-40
2022/12/12 13:59:21;;;;;;;48.38;31.17;;;;;;;;;;4929355;29;20039;-39
2022/12/12 14:02:22;;;;;;;50.63;29.08;;;;;;;;;;4930570;29;20039;-42
2022/12/12 14:05:24;;;;;;;56.08;29.40;;;;;;;;;;4892019;29;20089;-39
2022/12/12 14:07:52;;;;;;;47.65;28.05;;;;;;;;;;4894861;29;20067;-40
2022/12/12 14:10:22;;;;;;;65.95;31.85;;;;;;;;;;4891201;29;20045;-40
2022/12/12 14:12:48;;;;;;;53.60;32.25;;;;;;;;;;4910649;29;20124;-41
2022/12/12 14:15:40;;;;;;;57.28;31.55;;;;;;;;;;4916453;28;20562;-40
2022/12/12 14:18:16;;;;;;;68.85;33.17;;;;;;;;;;4912738;29;20067;-43
2022/12/12 14:20:42;;;;;;;59.13;33.03;;;;;;;;;;4915436;29;20024;-41
2022/12/12 14:23:22;;;;;;;55.05;32.35;;;;;;;;;;4916329;28;20043;-41
2022/12/12 14:25:48;;;;;;;63.90;37.10;;;;;;;;;;4914783;29;20036;-41
2022/12/12 14:28:20;;;;;;;66.47;32.85;;;;;;;;;;4916788;29;20059;-41
2022/12/12 14:30:46;;;;;;;;;;;;;;;;;;4916516;29;20090;-42
2022/12/12 14:33:17;;;;;;;49.05;26.60;;;;;;;;;;4916748;29;19966;-40
2022/12/12 14:35:53;;;;;;;48.47;27.13;;;;;;;;;;4917506;29;20035;-40
2022/12/12 14:38:25;;;;;;;53.28;25.50;;;;;;;;;;4911913;29;20056;-41
2022/12/12 14:40:59;;;;;;;44.45;26.27;;;;;;;;;;4920499;29;20043;-42
2022/12/12 14:43:28;;;;;;;46.10;26.25;;;;;;;;;;4928040;29;20116;-41
2022/12/12 14:45:54;;;;;;;43.28;25.15;;;;;;;;;;4931076;29;20086;-42
2022/12/12 14:48:30;;;;;;;44.00;25.60;;;;;;;;;;4924249;28;20506;-40
2022/12/12 14:51:20;;;;;;;47.63;25.55;;;;;;;;;;4909482;29;20048;-40
2022/12/12 14:53:48;;;;;;;41.42;26.65;;;;;;;;;;4919648;29;20047;-40
2022/12/12 14:56:18;;;;;;;54.00;26.13;;;;;;;;;;4925128;29;20074;-40
2022/12/12 14:58:49;;;;;;;45.45;28.42;;;;;;;;;;4930278;28;20055;-41